createdAt,value
2022-11-13T00:01:17.997Z,6.10
2022-11-13T00:06:38.027Z,5.83
2022-11-13T00:11:58.145Z,5.77
2022-11-13T00:17:18.182Z,5.70
2022-11-13T00:22:38.442Z,5.37
2022-11-13T00:27:58.371Z,5.00
2022-11-13T00:33:38.284Z,5.17
2022-11-13T00:38:58.968Z,4.83
2022-11-13T00:44:19.424Z,4.63
2022-11-13T00:49:40.643Z,4.83
2022-11-13T00:55:01.015Z,4.70
2022-11-13T01:00:21.296Z,4.80
2022-11-13T01:05:43.585Z,5.27
2022-11-13T01:11:09.669Z,4.67
2022-11-13T01:16:29.996Z,5.07
2022-11-13T01:21:50.350Z,4.83
2022-11-13T01:27:10.700Z,5.53
2022-11-13T01:32:30.846Z,4.97
2022-11-13T01:37:50.926Z,4.80
2022-11-13T01:43:38.033Z,5.13
2022-11-13T01:49:10.284Z,5.37
2022-11-13T01:54:34.164Z,4.90
2022-11-13T02:00:00.777Z,5.17
2022-11-13T02:05:20.899Z,5.37
2022-11-13T02:10:41.225Z,5.60
2022-11-13T02:16:01.516Z,5.50
2022-11-13T02:21:53.214Z,5.47
2022-11-13T02:27:36.930Z,5.10
2022-11-13T02:32:58.592Z,5.67
2022-11-13T02:38:19.365Z,4.60
2022-11-13T02:43:39.631Z,5.40
2022-11-13T02:49:00.028Z,4.97
2022-11-13T02:54:20.470Z,5.30
2022-11-13T02:59:41.314Z,4.90
2022-11-13T03:05:16.602Z,5.10
2022-11-13T03:10:36.772Z,4.53
2022-11-13T03:15:56.817Z,4.93
2022-11-13T03:21:16.952Z,4.73
2022-11-13T03:26:36.915Z,5.00
2022-11-13T03:31:56.898Z,5.33
2022-11-13T03:37:17.880Z,4.90
2022-11-13T03:42:38.273Z,5.13
2022-11-13T03:47:58.598Z,4.73
2022-11-13T03:53:18.591Z,4.63
2022-11-13T03:58:40.265Z,4.80
2022-11-13T04:04:01.078Z,5.10
2022-11-13T04:09:21.408Z,5.30
2022-11-13T04:14:41.733Z,5.07
2022-11-13T04:20:02.030Z,4.83
2022-11-13T04:25:22.830Z,4.87
2022-11-13T04:30:43.189Z,4.77
2022-11-13T04:36:03.516Z,5.13
2022-11-13T04:41:42.375Z,4.90
2022-11-13T04:47:02.565Z,4.43
2022-11-13T04:52:22.723Z,5.20
2022-11-13T04:57:43.157Z,4.60
2022-11-13T05:03:03.545Z,4.67
2022-11-13T05:08:23.904Z,4.87
2022-11-13T05:13:44.214Z,5.20
2022-11-13T05:19:06.967Z,4.80
2022-11-13T05:24:27.706Z,5.23
2022-11-13T05:29:47.748Z,4.70
2022-11-13T05:35:08.152Z,4.90
2022-11-13T05:40:31.108Z,4.90
2022-11-13T05:45:51.349Z,4.93
2022-11-13T05:51:14.552Z,4.57
2022-11-13T05:56:36.207Z,4.90
2022-11-13T06:01:56.470Z,4.77
2022-11-13T06:07:16.688Z,4.47
2022-11-13T06:12:36.792Z,4.70
2022-11-13T06:17:56.836Z,4.60
2022-11-13T06:23:17.274Z,4.57
2022-11-13T06:28:37.812Z,3.97
2022-11-13T06:34:00.356Z,4.77
2022-11-13T06:39:20.690Z,4.13
2022-11-13T06:44:41.092Z,4.47
2022-11-13T06:50:01.373Z,4.60
2022-11-13T06:55:21.529Z,4.43
2022-11-13T07:00:43.491Z,4.10
2022-11-13T07:06:08.615Z,3.80
2022-11-13T07:11:28.824Z,4.33
2022-11-13T07:17:08.621Z,4.40
2022-11-13T07:22:30.593Z,4.30
2022-11-13T07:27:50.756Z,3.93
2022-11-13T07:33:10.647Z,3.90
2022-11-13T07:38:31.916Z,4.03
2022-11-13T07:43:52.090Z,4.33
2022-11-13T07:49:12.351Z,3.53
2022-11-13T07:54:32.476Z,2.77
2022-11-13T07:59:52.832Z,2.80
2022-11-13T08:05:12.781Z,3.00
2022-11-13T08:10:32.905Z,2.63
2022-11-13T08:15:52.781Z,2.70
2022-11-13T08:21:15.081Z,2.87
2022-11-13T08:26:38.224Z,2.90
2022-11-13T08:31:58.313Z,2.90
2022-11-13T08:37:18.183Z,2.70
2022-11-13T08:42:38.688Z,2.43
2022-11-13T08:48:03.136Z,3.10
2022-11-13T08:53:24.662Z,3.37
2022-11-13T08:58:44.661Z,2.93
2022-11-13T09:04:04.914Z,3.97
2022-11-13T09:09:25.244Z,4.03
2022-11-13T09:14:45.524Z,4.50
2022-11-13T09:20:09.974Z,4.53
2022-11-13T09:25:37.554Z,3.97
2022-11-13T09:30:58.827Z,3.57
2022-11-13T09:36:19.111Z,3.83
2022-11-13T09:42:05.688Z,3.20
2022-11-13T09:47:32.217Z,3.20
2022-11-13T09:52:53.625Z,2.97
2022-11-13T09:58:28.817Z,2.90
2022-11-13T10:04:04.543Z,3.13
2022-11-13T10:09:36.902Z,2.50
2022-11-13T10:15:01.194Z,2.90
2022-11-13T10:20:24.759Z,2.70
2022-11-13T10:25:45.491Z,2.40
2022-11-13T10:31:06.270Z,1.97
2022-11-13T10:36:35.576Z,2.30
2022-11-13T10:41:55.852Z,2.57
2022-11-13T10:47:36.078Z,3.07
2022-11-13T10:52:59.361Z,2.70
2022-11-13T10:58:19.998Z,1.90
2022-11-13T11:03:49.449Z,2.00
2022-11-13T11:09:23.663Z,2.00
2022-11-13T11:14:59.043Z,2.17
2022-11-13T11:20:22.283Z,1.70
2022-11-13T11:25:52.100Z,1.70
2022-11-13T11:31:32.054Z,3.03
2022-11-13T11:36:59.439Z,2.73
2022-11-13T11:42:41.310Z,2.63
2022-11-13T11:48:04.241Z,2.60
2022-11-13T11:53:33.913Z,2.53
2022-11-13T11:59:16.006Z,2.60
2022-11-13T12:05:04.733Z,2.73
2022-11-13T12:10:43.816Z,3.10
2022-11-13T12:16:13.760Z,2.50
2022-11-13T12:21:42.947Z,2.40
2022-11-13T12:27:21.735Z,2.30
2022-11-13T12:33:02.741Z,2.23
2022-11-13T12:38:37.231Z,2.20
2022-11-13T12:44:07.447Z,2.23
2022-11-13T12:49:35.054Z,1.90
2022-11-13T12:55:37.384Z,1.97
2022-11-13T13:01:17.901Z,1.83
2022-11-13T13:06:59.674Z,2.00
2022-11-13T13:12:46.888Z,2.17
2022-11-13T13:18:13.364Z,1.87
2022-11-13T13:23:41.915Z,2.00
2022-11-13T13:29:21.276Z,1.83
2022-11-13T13:35:00.765Z,1.90
2022-11-13T13:40:33.227Z,2.00
2022-11-13T13:46:06.229Z,2.10
2022-11-13T13:51:46.708Z,1.80
2022-11-13T13:57:12.482Z,2.13
2022-11-13T14:02:32.626Z,2.53
2022-11-13T14:07:53.316Z,4.23
2022-11-13T14:13:13.966Z,3.17
2022-11-13T14:18:35.285Z,2.07
2022-11-13T14:23:56.799Z,2.00
2022-11-13T14:29:39.256Z,2.20
2022-11-13T14:35:02.029Z,1.97
2022-11-13T14:40:25.519Z,1.93
2022-11-13T14:45:53.787Z,2.00
2022-11-13T14:51:29.025Z,2.20
2022-11-13T14:56:49.129Z,4.90
2022-11-13T15:02:10.910Z,6.63
2022-11-13T15:07:33.659Z,7.90
2022-11-13T15:12:54.139Z,3.97
2022-11-13T15:18:17.075Z,2.87
2022-11-13T15:24:04.163Z,2.40
2022-11-13T15:29:26.544Z,2.17
2022-11-13T15:34:47.880Z,2.33
2022-11-13T15:40:08.315Z,2.50
2022-11-13T15:45:28.442Z,3.07
2022-11-13T15:50:48.579Z,3.57
2022-11-13T15:56:08.713Z,3.40
2022-11-13T16:01:29.182Z,3.00
2022-11-13T16:06:49.416Z,3.40
2022-11-13T16:12:12.897Z,4.87
2022-11-13T16:17:39.738Z,4.10
2022-11-13T16:22:59.898Z,3.50
2022-11-13T16:28:20.044Z,3.93
2022-11-13T16:33:41.543Z,4.13
2022-11-13T16:39:01.588Z,4.07
2022-11-13T16:44:21.764Z,4.53
2022-11-13T16:49:42.033Z,4.50
2022-11-13T16:55:06.294Z,3.83
2022-11-13T17:00:27.170Z,4.17
2022-11-13T17:05:51.729Z,5.40
2022-11-13T17:11:13.046Z,4.70
2022-11-13T17:16:33.304Z,4.67
2022-11-13T17:21:54.003Z,4.40
2022-11-13T17:27:13.997Z,5.27
2022-11-13T17:32:34.324Z,4.97
2022-11-13T17:37:55.750Z,5.40
2022-11-13T17:43:16.410Z,6.17
2022-11-13T17:48:37.628Z,5.87
2022-11-13T17:53:58.443Z,4.20
2022-11-13T17:59:18.629Z,6.23
2022-11-13T18:04:38.976Z,7.80
2022-11-13T18:09:59.493Z,5.90
2022-11-13T18:15:20.862Z,4.73
2022-11-13T18:20:41.453Z,6.17
2022-11-13T18:26:10.567Z,5.93
2022-11-13T18:31:31.073Z,5.47
2022-11-13T18:36:52.083Z,7.60
2022-11-13T18:42:12.285Z,8.60
2022-11-13T18:47:32.496Z,9.70
2022-11-13T18:52:55.468Z,10.07
2022-11-13T18:58:15.635Z,13.80
2022-11-13T19:03:36.452Z,9.43
2022-11-13T19:09:04.489Z,6.10
2022-11-13T19:14:24.453Z,5.47
2022-11-13T19:19:45.128Z,5.00
2022-11-13T19:25:05.892Z,5.70
2022-11-13T19:30:27.366Z,5.87
2022-11-13T19:35:48.185Z,5.73
2022-11-13T19:41:10.528Z,12.60
2022-11-13T19:46:34.169Z,12.40
2022-11-13T19:51:55.178Z,11.50
2022-11-13T19:57:15.942Z,8.00
2022-11-13T20:02:36.088Z,6.20
2022-11-13T20:07:58.391Z,6.03
2022-11-13T20:13:19.033Z,6.30
2022-11-13T20:18:39.831Z,6.67
2022-11-13T20:24:00.834Z,9.77
2022-11-13T20:29:21.160Z,7.37
2022-11-13T20:34:41.906Z,6.60
2022-11-13T20:40:02.206Z,7.27
2022-11-13T20:45:22.279Z,5.97
2022-11-13T20:50:42.344Z,6.60
2022-11-13T20:56:03.100Z,6.23
2022-11-13T21:01:25.295Z,6.20
2022-11-13T21:06:46.289Z,6.80
2022-11-13T21:12:06.935Z,6.57
2022-11-13T21:17:27.344Z,6.70
2022-11-13T21:22:47.680Z,6.47
2022-11-13T21:28:08.189Z,6.70
2022-11-13T21:33:29.319Z,6.30
2022-11-13T21:38:50.769Z,5.93
2022-11-13T21:44:11.329Z,6.43
2022-11-13T21:49:31.745Z,5.80
2022-11-13T21:54:51.954Z,6.83
2022-11-13T22:00:12.956Z,6.50
2022-11-13T22:05:33.198Z,6.10
2022-11-13T22:10:54.116Z,7.30
2022-11-13T22:16:14.379Z,6.63
2022-11-13T22:21:35.198Z,8.40
2022-11-13T22:26:55.366Z,8.00
2022-11-13T22:32:15.900Z,7.90
2022-11-13T22:37:36.196Z,7.23
2022-11-13T22:42:56.205Z,6.97
2022-11-13T22:48:16.354Z,7.10
2022-11-13T22:53:36.786Z,6.40
2022-11-13T22:58:58.347Z,5.70
2022-11-13T23:04:18.852Z,5.60
2022-11-13T23:09:39.129Z,5.73
2022-11-13T23:14:59.259Z,6.27
2022-11-13T23:20:19.714Z,5.83
2022-11-13T23:25:40.089Z,5.17
2022-11-13T23:31:03.218Z,5.00
2022-11-13T23:36:23.897Z,5.07
2022-11-13T23:41:44.164Z,4.67
2022-11-13T23:47:04.805Z,4.90
2022-11-13T23:52:25.623Z,4.50
2022-11-13T23:57:46.218Z,4.77
